sensor_id;sensor_type;location;lat;lon;timestamp;P1;durP1;ratioP1;P2;durP2;ratioP2
11006;SDS011;8186;57.652;11.968;2023-02-27T00:02:12;2.97;;;1.87;;
11006;SDS011;8186;57.652;11.968;2023-02-27T00:04:39;2.67;;;1.50;;
11006;SDS011;8186;57.652;11.968;2023-02-27T00:07:06;3.03;;;1.40;;
11006;SDS011;8186;57.652;11.968;2023-02-27T00:09:34;2.03;;;1.50;;
11006;SDS011;8186;57.652;11.968;2023-02-27T00:12:02;4.10;;;1.30;;
11006;SDS011;8186;57.652;11.968;2023-02-27T00:14:29;2.20;;;1.43;;
11006;SDS011;8186;57.652;11.968;2023-02-27T00:16:56;3.77;;;1.57;;
11006;SDS011;8186;57.652;11.968;2023-02-27T00:19:23;2.90;;;1.40;;
11006;SDS011;8186;57.652;11.968;2023-02-27T00:21:50;3.63;;;1.60;;
11006;SDS011;8186;57.652;11.968;2023-02-27T00:24:17;2.40;;;1.30;;
11006;SDS011;8186;57.652;11.968;2023-02-27T00:26:45;5.93;;;1.53;;
11006;SDS011;8186;57.652;11.968;2023-02-27T00:29:12;3.57;;;1.50;;
11006;SDS011;8186;57.652;11.968;2023-02-27T00:31:39;2.90;;;1.50;;
11006;SDS011;8186;57.652;11.968;2023-02-27T00:34:05;2.70;;;1.30;;
11006;SDS011;8186;57.652;11.968;2023-02-27T00:36:32;2.87;;;1.60;;
11006;SDS011;8186;57.652;11.968;2023-02-27T00:38:59;2.90;;;1.43;;
11006;SDS011;8186;57.652;11.968;2023-02-27T00:41:29;2.80;;;1.50;;
11006;SDS011;8186;57.652;11.968;2023-02-27T00:43:57;1.97;;;1.40;;
11006;SDS011;8186;57.652;11.968;2023-02-27T00:46:24;3.67;;;1.80;;
11006;SDS011;8186;57.652;11.968;2023-02-27T00:48:51;4.13;;;1.40;;
11006;SDS011;8186;57.652;11.968;2023-02-27T00:51:18;3.13;;;1.60;;
11006;SDS011;8186;57.652;11.968;2023-02-27T00:53:47;6.87;;;2.33;;
11006;SDS011;8186;57.652;11.968;2023-02-27T00:56:14;5.17;;;1.63;;
11006;SDS011;8186;57.652;11.968;2023-02-27T00:58:41;3.13;;;1.97;;
11006;SDS011;8186;57.652;11.968;2023-02-27T01:01:09;5.83;;;2.10;;
11006;SDS011;8186;57.652;11.968;2023-02-27T01:03:37;3.50;;;1.90;;
11006;SDS011;8186;57.652;11.968;2023-02-27T01:06:04;3.40;;;1.70;;
11006;SDS011;8186;57.652;11.968;2023-02-27T01:08:31;7.53;;;2.07;;
11006;SDS011;8186;57.652;11.968;2023-02-27T01:10:58;3.97;;;1.93;;
11006;SDS011;8186;57.652;11.968;2023-02-27T01:13:25;2.87;;;1.87;;
11006;SDS011;8186;57.652;11.968;2023-02-27T01:15:52;2.80;;;1.60;;
11006;SDS011;8186;57.652;11.968;2023-02-27T01:18:20;4.30;;;2.37;;
11006;SDS011;8186;57.652;11.968;2023-02-27T01:20:50;2.93;;;1.50;;
11006;SDS011;8186;57.652;11.968;2023-02-27T01:23:17;4.77;;;2.70;;
11006;SDS011;8186;57.652;11.968;2023-02-27T01:25:45;5.00;;;1.73;;
11006;SDS011;8186;57.652;11.968;2023-02-27T01:28:12;2.40;;;1.80;;
11006;SDS011;8186;57.652;11.968;2023-02-27T01:30:39;1.93;;;1.53;;
11006;SDS011;8186;57.652;11.968;2023-02-27T01:33:06;3.67;;;2.10;;
11006;SDS011;8186;57.652;11.968;2023-02-27T01:35:35;1.90;;;1.17;;
11006;SDS011;8186;57.652;11.968;2023-02-27T01:38:02;2.10;;;1.23;;
11006;SDS011;8186;57.652;11.968;2023-02-27T01:40:29;1.83;;;1.10;;
11006;SDS011;8186;57.652;11.968;2023-02-27T01:43:01;2.50;;;1.40;;
11006;SDS011;8186;57.652;11.968;2023-02-27T01:45:29;4.40;;;1.53;;
11006;SDS011;8186;57.652;11.968;2023-02-27T01:48:03;3.03;;;1.47;;
11006;SDS011;8186;57.652;11.968;2023-02-27T01:50:32;1.90;;;1.20;;
11006;SDS011;8186;57.652;11.968;2023-02-27T01:53:02;4.07;;;1.30;;
11006;SDS011;8186;57.652;11.968;2023-02-27T01:55:29;4.33;;;1.50;;
11006;SDS011;8186;57.652;11.968;2023-02-27T01:57:59;5.17;;;1.60;;
11006;SDS011;8186;57.652;11.968;2023-02-27T02:00:26;2.00;;;1.10;;
11006;SDS011;8186;57.652;11.968;2023-02-27T02:02:54;3.43;;;1.10;;
11006;SDS011;8186;57.652;11.968;2023-02-27T02:05:24;3.37;;;1.10;;
11006;SDS011;8186;57.652;11.968;2023-02-27T02:07:51;3.53;;;1.10;;
11006;SDS011;8186;57.652;11.968;2023-02-27T02:10:20;2.70;;;1.20;;
11006;SDS011;8186;57.652;11.968;2023-02-27T02:12:47;3.80;;;1.40;;
11006;SDS011;8186;57.652;11.968;2023-02-27T02:15:14;2.20;;;1.10;;
11006;SDS011;8186;57.652;11.968;2023-02-27T02:17:44;1.93;;;1.10;;
11006;SDS011;8186;57.652;11.968;2023-02-27T02:20:27;3.10;;;1.33;;
11006;SDS011;8186;57.652;11.968;2023-02-27T02:23:16;1.57;;;0.87;;
11006;SDS011;8186;57.652;11.968;2023-02-27T02:32:13;3.23;;;1.00;;
11006;SDS011;8186;57.652;11.968;2023-02-27T02:41:13;2.20;;;1.23;;
11006;SDS011;8186;57.652;11.968;2023-02-27T02:43:46;2.17;;;1.30;;
11006;SDS011;8186;57.652;11.968;2023-02-27T02:46:18;1.70;;;1.20;;
11006;SDS011;8186;57.652;11.968;2023-02-27T02:48:51;6.13;;;1.60;;
11006;SDS011;8186;57.652;11.968;2023-02-27T02:51:22;3.30;;;1.40;;
11006;SDS011;8186;57.652;11.968;2023-02-27T02:53:58;2.87;;;1.27;;
11006;SDS011;8186;57.652;11.968;2023-02-27T02:56:28;1.87;;;1.30;;
11006;SDS011;8186;57.652;11.968;2023-02-27T02:58:59;2.23;;;1.23;;
11006;SDS011;8186;57.652;11.968;2023-02-27T03:01:31;3.37;;;1.57;;
11006;SDS011;8186;57.652;11.968;2023-02-27T03:04:02;2.83;;;1.43;;
11006;SDS011;8186;57.652;11.968;2023-02-27T03:06:33;3.27;;;1.73;;
11006;SDS011;8186;57.652;11.968;2023-02-27T03:09:04;4.47;;;1.70;;
11006;SDS011;8186;57.652;11.968;2023-02-27T03:11:33;3.07;;;1.70;;
11006;SDS011;8186;57.652;11.968;2023-02-27T03:14:03;3.10;;;1.77;;
11006;SDS011;8186;57.652;11.968;2023-02-27T03:16:33;3.43;;;2.00;;
11006;SDS011;8186;57.652;11.968;2023-02-27T03:19:03;6.37;;;1.60;;
11006;SDS011;8186;57.652;11.968;2023-02-27T03:21:34;2.57;;;1.43;;
11006;SDS011;8186;57.652;11.968;2023-02-27T03:24:06;1.87;;;1.13;;
11006;SDS011;8186;57.652;11.968;2023-02-27T03:26:37;5.73;;;1.40;;
11006;SDS011;8186;57.652;11.968;2023-02-27T03:29:07;2.30;;;1.33;;
11006;SDS011;8186;57.652;11.968;2023-02-27T03:31:38;2.80;;;1.23;;
11006;SDS011;8186;57.652;11.968;2023-02-27T03:34:12;2.43;;;1.43;;
11006;SDS011;8186;57.652;11.968;2023-02-27T03:36:43;2.43;;;1.30;;
11006;SDS011;8186;57.652;11.968;2023-02-27T03:39:18;2.70;;;1.50;;
11006;SDS011;8186;57.652;11.968;2023-02-27T03:41:50;2.80;;;1.60;;
11006;SDS011;8186;57.652;11.968;2023-02-27T03:44:22;1.90;;;1.40;;
11006;SDS011;8186;57.652;11.968;2023-02-27T03:46:51;5.07;;;1.60;;
11006;SDS011;8186;57.652;11.968;2023-02-27T03:49:18;2.03;;;1.23;;
11006;SDS011;8186;57.652;11.968;2023-02-27T03:51:45;2.20;;;1.20;;
11006;SDS011;8186;57.652;11.968;2023-02-27T03:54:12;3.10;;;1.70;;
11006;SDS011;8186;57.652;11.968;2023-02-27T03:56:43;4.20;;;1.60;;
11006;SDS011;8186;57.652;11.968;2023-02-27T03:59:12;3.00;;;1.43;;
11006;SDS011;8186;57.652;11.968;2023-02-27T04:01:40;1.50;;;1.30;;
11006;SDS011;8186;57.652;11.968;2023-02-27T04:04:08;3.87;;;1.60;;
11006;SDS011;8186;57.652;11.968;2023-02-27T04:06:37;4.30;;;1.40;;
11006;SDS011;8186;57.652;11.968;2023-02-27T04:09:26;3.43;;;1.60;;
11006;SDS011;8186;57.652;11.968;2023-02-27T04:12:08;4.00;;;1.53;;
11006;SDS011;8186;57.652;11.968;2023-02-27T04:14:47;4.03;;;1.53;;
11006;SDS011;8186;57.652;11.968;2023-02-27T04:17:20;5.57;;;2.30;;
11006;SDS011;8186;57.652;11.968;2023-02-27T04:19:52;3.70;;;1.83;;
11006;SDS011;8186;57.652;11.968;2023-02-27T04:22:38;4.73;;;1.80;;
11006;SDS011;8186;57.652;11.968;2023-02-27T04:27:52;3.47;;;2.30;;
11006;SDS011;8186;57.652;11.968;2023-02-27T04:30:24;4.47;;;2.00;;
11006;SDS011;8186;57.652;11.968;2023-02-27T04:32:55;4.87;;;2.10;;
11006;SDS011;8186;57.652;11.968;2023-02-27T04:35:27;2.23;;;1.63;;
11006;SDS011;8186;57.652;11.968;2023-02-27T04:37:58;3.30;;;2.00;;
11006;SDS011;8186;57.652;11.968;2023-02-27T04:40:28;2.87;;;1.43;;
11006;SDS011;8186;57.652;11.968;2023-02-27T04:42:59;2.40;;;1.90;;
11006;SDS011;8186;57.652;11.968;2023-02-27T04:45:27;3.77;;;1.63;;
11006;SDS011;8186;57.652;11.968;2023-02-27T04:47:56;2.90;;;2.00;;
11006;SDS011;8186;57.652;11.968;2023-02-27T04:50:28;4.07;;;1.90;;
11006;SDS011;8186;57.652;11.968;2023-02-27T04:52:59;4.73;;;1.90;;
11006;SDS011;8186;57.652;11.968;2023-02-27T04:55:30;4.37;;;2.00;;
11006;SDS011;8186;57.652;11.968;2023-02-27T04:58:02;2.90;;;2.07;;
11006;SDS011;8186;57.652;11.968;2023-02-27T05:00:30;2.60;;;2.10;;
11006;SDS011;8186;57.652;11.968;2023-02-27T05:02:58;4.00;;;1.83;;
11006;SDS011;8186;57.652;11.968;2023-02-27T05:05:28;6.27;;;2.10;;
11006;SDS011;8186;57.652;11.968;2023-02-27T05:07:58;5.13;;;1.83;;
11006;SDS011;8186;57.652;11.968;2023-02-27T05:10:27;3.37;;;2.00;;
11006;SDS011;8186;57.652;11.968;2023-02-27T05:12:58;4.43;;;2.00;;
11006;SDS011;8186;57.652;11.968;2023-02-27T05:15:30;3.40;;;2.00;;
11006;SDS011;8186;57.652;11.968;2023-02-27T05:17:59;4.27;;;2.20;;
11006;SDS011;8186;57.652;11.968;2023-02-27T05:20:30;3.90;;;2.20;;
11006;SDS011;8186;57.652;11.968;2023-02-27T05:22:59;6.13;;;2.10;;
11006;SDS011;8186;57.652;11.968;2023-02-27T05:25:34;3.40;;;2.17;;
11006;SDS011;8186;57.652;11.968;2023-02-27T05:28:05;5.60;;;2.00;;
11006;SDS011;8186;57.652;11.968;2023-02-27T05:30:35;4.80;;;2.03;;
11006;SDS011;8186;57.652;11.968;2023-02-27T05:33:05;3.93;;;2.00;;
11006;SDS011;8186;57.652;11.968;2023-02-27T05:35:37;3.77;;;2.10;;
11006;SDS011;8186;57.652;11.968;2023-02-27T05:38:10;3.10;;;2.00;;
11006;SDS011;8186;57.652;11.968;2023-02-27T05:40:41;3.20;;;2.13;;
11006;SDS011;8186;57.652;11.968;2023-02-27T05:43:15;3.13;;;1.80;;
11006;SDS011;8186;57.652;11.968;2023-02-27T05:45:45;3.90;;;2.47;;
11006;SDS011;8186;57.652;11.968;2023-02-27T05:48:14;5.03;;;2.23;;
11006;SDS011;8186;57.652;11.968;2023-02-27T05:50:45;3.17;;;2.13;;
11006;SDS011;8186;57.652;11.968;2023-02-27T05:53:15;2.97;;;2.10;;
11006;SDS011;8186;57.652;11.968;2023-02-27T05:55:44;4.47;;;2.10;;
11006;SDS011;8186;57.652;11.968;2023-02-27T05:58:15;6.23;;;2.60;;
11006;SDS011;8186;57.652;11.968;2023-02-27T06:00:45;4.70;;;2.17;;
11006;SDS011;8186;57.652;11.968;2023-02-27T06:03:15;4.47;;;2.03;;
11006;SDS011;8186;57.652;11.968;2023-02-27T06:05:42;3.63;;;1.80;;
11006;SDS011;8186;57.652;11.968;2023-02-27T06:08:09;4.77;;;2.37;;
11006;SDS011;8186;57.652;11.968;2023-02-27T06:10:36;3.90;;;2.10;;
11006;SDS011;8186;57.652;11.968;2023-02-27T06:13:03;3.87;;;2.23;;
11006;SDS011;8186;57.652;11.968;2023-02-27T06:15:32;5.23;;;2.00;;
11006;SDS011;8186;57.652;11.968;2023-02-27T06:17:58;2.00;;;1.80;;
11006;SDS011;8186;57.652;11.968;2023-02-27T06:20:25;2.57;;;1.73;;
11006;SDS011;8186;57.652;11.968;2023-02-27T06:22:52;4.40;;;1.87;;
11006;SDS011;8186;57.652;11.968;2023-02-27T06:25:19;2.37;;;1.30;;
11006;SDS011;8186;57.652;11.968;2023-02-27T06:27:46;4.30;;;1.63;;
11006;SDS011;8186;57.652;11.968;2023-02-27T06:30:13;5.17;;;1.80;;
11006;SDS011;8186;57.652;11.968;2023-02-27T06:32:42;3.93;;;1.60;;
11006;SDS011;8186;57.652;11.968;2023-02-27T06:35:09;6.60;;;2.10;;
11006;SDS011;8186;57.652;11.968;2023-02-27T06:37:36;5.27;;;1.70;;
11006;SDS011;8186;57.652;11.968;2023-02-27T06:40:03;4.23;;;1.57;;
11006;SDS011;8186;57.652;11.968;2023-02-27T06:42:35;3.67;;;1.77;;
11006;SDS011;8186;57.652;11.968;2023-02-27T06:45:03;4.03;;;1.80;;
11006;SDS011;8186;57.652;11.968;2023-02-27T06:47:30;4.00;;;1.80;;
11006;SDS011;8186;57.652;11.968;2023-02-27T06:49:59;3.47;;;1.50;;
11006;SDS011;8186;57.652;11.968;2023-02-27T06:52:26;2.27;;;1.57;;
11006;SDS011;8186;57.652;11.968;2023-02-27T06:54:53;3.07;;;1.90;;
11006;SDS011;8186;57.652;11.968;2023-02-27T06:57:20;5.20;;;1.50;;
11006;SDS011;8186;57.652;11.968;2023-02-27T06:59:47;3.40;;;1.27;;
11006;SDS011;8186;57.652;11.968;2023-02-27T07:02:15;4.37;;;1.53;;
11006;SDS011;8186;57.652;11.968;2023-02-27T07:04:42;4.23;;;1.43;;
11006;SDS011;8186;57.652;11.968;2023-02-27T07:07:10;3.13;;;1.67;;
11006;SDS011;8186;57.652;11.968;2023-02-27T07:09:39;3.83;;;1.80;;
11006;SDS011;8186;57.652;11.968;2023-02-27T07:12:06;2.90;;;1.80;;
11006;SDS011;8186;57.652;11.968;2023-02-27T07:14:33;4.27;;;1.53;;
11006;SDS011;8186;57.652;11.968;2023-02-27T07:17:00;3.87;;;2.00;;
11006;SDS011;8186;57.652;11.968;2023-02-27T07:19:29;8.27;;;2.87;;
11006;SDS011;8186;57.652;11.968;2023-02-27T07:21:56;4.30;;;2.53;;
11006;SDS011;8186;57.652;11.968;2023-02-27T07:24:25;5.17;;;2.60;;
11006;SDS011;8186;57.652;11.968;2023-02-27T07:26:52;5.23;;;2.17;;
11006;SDS011;8186;57.652;11.968;2023-02-27T07:29:19;4.40;;;2.63;;
11006;SDS011;8186;57.652;11.968;2023-02-27T07:31:46;10.13;;;2.70;;
11006;SDS011;8186;57.652;11.968;2023-02-27T07:34:13;5.23;;;2.17;;
11006;SDS011;8186;57.652;11.968;2023-02-27T07:36:40;7.13;;;2.93;;
11006;SDS011;8186;57.652;11.968;2023-02-27T07:39:07;5.00;;;2.90;;
11006;SDS011;8186;57.652;11.968;2023-02-27T07:41:36;6.33;;;3.10;;
11006;SDS011;8186;57.652;11.968;2023-02-27T07:44:03;5.50;;;3.00;;
11006;SDS011;8186;57.652;11.968;2023-02-27T07:46:31;10.47;;;3.10;;
11006;SDS011;8186;57.652;11.968;2023-02-27T07:48:58;6.20;;;3.07;;
11006;SDS011;8186;57.652;11.968;2023-02-27T07:51:25;5.53;;;2.73;;
11006;SDS011;8186;57.652;11.968;2023-02-27T07:53:51;5.53;;;3.10;;
11006;SDS011;8186;57.652;11.968;2023-02-27T07:56:18;5.80;;;3.00;;
11006;SDS011;8186;57.652;11.968;2023-02-27T07:58:47;8.07;;;2.87;;
11006;SDS011;8186;57.652;11.968;2023-02-27T08:01:13;9.33;;;3.23;;
11006;SDS011;8186;57.652;11.968;2023-02-27T08:03:40;10.27;;;3.70;;
11006;SDS011;8186;57.652;11.968;2023-02-27T08:06:07;6.60;;;2.63;;
11006;SDS011;8186;57.652;11.968;2023-02-27T08:08:34;7.13;;;2.93;;
11006;SDS011;8186;57.652;11.968;2023-02-27T08:11:03;9.90;;;3.23;;
11006;SDS011;8186;57.652;11.968;2023-02-27T08:13:30;4.83;;;2.97;;
11006;SDS011;8186;57.652;11.968;2023-02-27T08:15:58;6.17;;;2.87;;
11006;SDS011;8186;57.652;11.968;2023-02-27T08:18:25;8.70;;;3.63;;
11006;SDS011;8186;57.652;11.968;2023-02-27T08:20:53;7.07;;;3.93;;
11006;SDS011;8186;57.652;11.968;2023-02-27T08:23:20;10.27;;;2.70;;
11006;SDS011;8186;57.652;11.968;2023-02-27T08:25:47;7.10;;;3.00;;
11006;SDS011;8186;57.652;11.968;2023-02-27T08:28:14;8.67;;;2.87;;
11006;SDS011;8186;57.652;11.968;2023-02-27T08:30:42;4.13;;;3.10;;
11006;SDS011;8186;57.652;11.968;2023-02-27T08:33:10;8.43;;;3.43;;
11006;SDS011;8186;57.652;11.968;2023-02-27T08:35:38;3.50;;;2.63;;
11006;SDS011;8186;57.652;11.968;2023-02-27T08:38:05;4.40;;;2.67;;
11006;SDS011;8186;57.652;11.968;2023-02-27T08:40:32;5.03;;;2.33;;
11006;SDS011;8186;57.652;11.968;2023-02-27T08:42:59;7.97;;;3.07;;
11006;SDS011;8186;57.652;11.968;2023-02-27T08:45:26;6.33;;;2.70;;
11006;SDS011;8186;57.652;11.968;2023-02-27T08:47:53;7.70;;;3.23;;
11006;SDS011;8186;57.652;11.968;2023-02-27T08:50:21;4.10;;;2.50;;
11006;SDS011;8186;57.652;11.968;2023-02-27T08:52:48;9.90;;;3.30;;
11006;SDS011;8186;57.652;11.968;2023-02-27T08:55:15;7.63;;;3.33;;
11006;SDS011;8186;57.652;11.968;2023-02-27T08:57:42;12.50;;;2.90;;
11006;SDS011;8186;57.652;11.968;2023-02-27T09:00:09;8.23;;;2.80;;
11006;SDS011;8186;57.652;11.968;2023-02-27T09:02:38;8.20;;;2.90;;
11006;SDS011;8186;57.652;11.968;2023-02-27T09:05:05;10.63;;;2.80;;
11006;SDS011;8186;57.652;11.968;2023-02-27T09:07:34;6.40;;;2.53;;
11006;SDS011;8186;57.652;11.968;2023-02-27T09:10:02;7.73;;;2.70;;
11006;SDS011;8186;57.652;11.968;2023-02-27T09:12:29;12.60;;;2.83;;
11006;SDS011;8186;57.652;11.968;2023-02-27T09:14:56;5.73;;;2.53;;
11006;SDS011;8186;57.652;11.968;2023-02-27T09:17:23;4.30;;;2.63;;
11006;SDS011;8186;57.652;11.968;2023-02-27T09:19:50;6.97;;;2.87;;
11006;SDS011;8186;57.652;11.968;2023-02-27T09:22:17;9.57;;;2.80;;
11006;SDS011;8186;57.652;11.968;2023-02-27T09:24:45;10.20;;;2.67;;
11006;SDS011;8186;57.652;11.968;2023-02-27T09:27:12;15.73;;;3.17;;
11006;SDS011;8186;57.652;11.968;2023-02-27T09:29:39;7.20;;;2.60;;
11006;SDS011;8186;57.652;11.968;2023-02-27T09:32:06;11.30;;;2.50;;
11006;SDS011;8186;57.652;11.968;2023-02-27T09:34:34;6.73;;;2.50;;
11006;SDS011;8186;57.652;11.968;2023-02-27T09:37:01;3.70;;;2.30;;
11006;SDS011;8186;57.652;11.968;2023-02-27T09:39:28;5.13;;;2.20;;
11006;SDS011;8186;57.652;11.968;2023-02-27T09:41:58;3.97;;;2.47;;
11006;SDS011;8186;57.652;11.968;2023-02-27T09:44:36;5.50;;;2.97;;
11006;SDS011;8186;57.652;11.968;2023-02-27T09:47:05;5.97;;;2.07;;
11006;SDS011;8186;57.652;11.968;2023-02-27T09:49:42;6.17;;;2.40;;
11006;SDS011;8186;57.652;11.968;2023-02-27T09:52:17;7.67;;;2.20;;
11006;SDS011;8186;57.652;11.968;2023-02-27T09:54:44;11.03;;;2.70;;
11006;SDS011;8186;57.652;11.968;2023-02-27T09:57:14;13.03;;;3.30;;
11006;SDS011;8186;57.652;11.968;2023-02-27T09:59:45;7.77;;;2.37;;
11006;SDS011;8186;57.652;11.968;2023-02-27T10:02:21;11.70;;;2.70;;
11006;SDS011;8186;57.652;11.968;2023-02-27T10:04:58;9.77;;;2.87;;
11006;SDS011;8186;57.652;11.968;2023-02-27T10:07:30;5.47;;;2.50;;
11006;SDS011;8186;57.652;11.968;2023-02-27T10:10:02;12.43;;;2.47;;
11006;SDS011;8186;57.652;11.968;2023-02-27T10:12:48;9.13;;;2.80;;
11006;SDS011;8186;57.652;11.968;2023-02-27T10:15:20;12.27;;;3.20;;
11006;SDS011;8186;57.652;11.968;2023-02-27T10:17:50;8.93;;;2.53;;
11006;SDS011;8186;57.652;11.968;2023-02-27T10:20:20;12.17;;;3.07;;
11006;SDS011;8186;57.652;11.968;2023-02-27T10:22:52;17.50;;;2.90;;
11006;SDS011;8186;57.652;11.968;2023-02-27T10:25:21;13.70;;;3.17;;
11006;SDS011;8186;57.652;11.968;2023-02-27T10:27:49;14.60;;;3.77;;
11006;SDS011;8186;57.652;11.968;2023-02-27T10:30:20;6.70;;;2.47;;
11006;SDS011;8186;57.652;11.968;2023-02-27T10:32:49;4.33;;;1.97;;
11006;SDS011;8186;57.652;11.968;2023-02-27T10:35:21;5.73;;;2.27;;
11006;SDS011;8186;57.652;11.968;2023-02-27T10:37:54;14.70;;;2.97;;
11006;SDS011;8186;57.652;11.968;2023-02-27T10:40:23;13.40;;;2.47;;
11006;SDS011;8186;57.652;11.968;2023-02-27T10:42:52;13.13;;;2.73;;
11006;SDS011;8186;57.652;11.968;2023-02-27T10:45:20;17.97;;;3.10;;
11006;SDS011;8186;57.652;11.968;2023-02-27T10:47:47;5.97;;;2.10;;
11006;SDS011;8186;57.652;11.968;2023-02-27T10:50:21;12.30;;;2.80;;
11006;SDS011;8186;57.652;11.968;2023-02-27T10:52:49;8.97;;;1.97;;
11006;SDS011;8186;57.652;11.968;2023-02-27T10:55:18;14.13;;;2.83;;
11006;SDS011;8186;57.652;11.968;2023-02-27T10:57:49;13.87;;;2.70;;
11006;SDS011;8186;57.652;11.968;2023-02-27T11:00:28;9.07;;;2.43;;
11006;SDS011;8186;57.652;11.968;2023-02-27T11:02:59;6.53;;;2.13;;
11006;SDS011;8186;57.652;11.968;2023-02-27T11:05:27;3.47;;;0.97;;
11006;SDS011;8186;57.652;11.968;2023-02-27T11:08:08;9.87;;;1.90;;
11006;SDS011;8186;57.652;11.968;2023-02-27T11:10:37;5.13;;;1.40;;
11006;SDS011;8186;57.652;11.968;2023-02-27T11:13:19;3.53;;;1.30;;
11006;SDS011;8186;57.652;11.968;2023-02-27T11:15:59;3.83;;;1.30;;
11006;SDS011;8186;57.652;11.968;2023-02-27T11:18:28;4.33;;;1.00;;
11006;SDS011;8186;57.652;11.968;2023-02-27T11:21:08;2.20;;;0.70;;
11006;SDS011;8186;57.652;11.968;2023-02-27T11:23:37;1.13;;;0.80;;
11006;SDS011;8186;57.652;11.968;2023-02-27T11:26:16;5.50;;;0.87;;
11006;SDS011;8186;57.652;11.968;2023-02-27T11:28:46;3.13;;;1.20;;
11006;SDS011;8186;57.652;11.968;2023-02-27T11:31:31;1.53;;;1.17;;
11006;SDS011;8186;57.652;11.968;2023-02-27T11:33:58;2.53;;;1.20;;
11006;SDS011;8186;57.652;11.968;2023-02-27T11:36:37;3.93;;;1.03;;
11006;SDS011;8186;57.652;11.968;2023-02-27T11:39:05;4.20;;;0.90;;
11006;SDS011;8186;57.652;11.968;2023-02-27T11:41:32;3.43;;;0.90;;
11006;SDS011;8186;57.652;11.968;2023-02-27T11:44:00;3.23;;;0.70;;
11006;SDS011;8186;57.652;11.968;2023-02-27T11:46:31;2.50;;;0.80;;
11006;SDS011;8186;57.652;11.968;2023-02-27T11:48:59;4.93;;;1.37;;
11006;SDS011;8186;57.652;11.968;2023-02-27T11:51:33;1.90;;;1.00;;
11006;SDS011;8186;57.652;11.968;2023-02-27T11:54:12;2.93;;;1.13;;
11006;SDS011;8186;57.652;11.968;2023-02-27T11:56:42;3.13;;;0.80;;
11006;SDS011;8186;57.652;11.968;2023-02-27T11:59:16;4.10;;;0.90;;
11006;SDS011;8186;57.652;11.968;2023-02-27T12:01:51;4.33;;;1.53;;
11006;SDS011;8186;57.652;11.968;2023-02-27T12:04:21;3.43;;;0.80;;
11006;SDS011;8186;57.652;11.968;2023-02-27T12:06:51;2.67;;;0.90;;
11006;SDS011;8186;57.652;11.968;2023-02-27T12:09:31;2.10;;;0.87;;
11006;SDS011;8186;57.652;11.968;2023-02-27T12:12:04;3.30;;;0.80;;
11006;SDS011;8186;57.652;11.968;2023-02-27T12:14:38;0.73;;;0.43;;
11006;SDS011;8186;57.652;11.968;2023-02-27T12:17:11;3.90;;;0.50;;
11006;SDS011;8186;57.652;11.968;2023-02-27T12:19:45;2.97;;;0.57;;
11006;SDS011;8186;57.652;11.968;2023-02-27T12:22:21;3.13;;;0.50;;
11006;SDS011;8186;57.652;11.968;2023-02-27T12:24:50;1.70;;;0.50;;
11006;SDS011;8186;57.652;11.968;2023-02-27T12:27:21;2.10;;;0.60;;
11006;SDS011;8186;57.652;11.968;2023-02-27T12:29:51;2.63;;;0.80;;
11006;SDS011;8186;57.652;11.968;2023-02-27T12:32:22;2.80;;;0.60;;
11006;SDS011;8186;57.652;11.968;2023-02-27T12:34:53;2.83;;;0.60;;
11006;SDS011;8186;57.652;11.968;2023-02-27T12:37:23;3.57;;;1.00;;
11006;SDS011;8186;57.652;11.968;2023-02-27T12:39:51;3.77;;;0.87;;
11006;SDS011;8186;57.652;11.968;2023-02-27T12:42:22;6.03;;;1.00;;
11006;SDS011;8186;57.652;11.968;2023-02-27T12:45:21;1.77;;;0.90;;
11006;SDS011;8186;57.652;11.968;2023-02-27T12:48:06;1.73;;;0.90;;
11006;SDS011;8186;57.652;11.968;2023-02-27T12:50:47;4.30;;;0.80;;
11006;SDS011;8186;57.652;11.968;2023-02-27T12:53:25;4.63;;;0.80;;
11006;SDS011;8186;57.652;11.968;2023-02-27T12:56:00;3.63;;;1.10;;
11006;SDS011;8186;57.652;11.968;2023-02-27T12:58:34;4.17;;;0.80;;
11006;SDS011;8186;57.652;11.968;2023-02-27T13:01:08;2.73;;;0.70;;
11006;SDS011;8186;57.652;11.968;2023-02-27T13:03:44;1.83;;;0.93;;
11006;SDS011;8186;57.652;11.968;2023-02-27T13:06:19;3.20;;;0.70;;
11006;SDS011;8186;57.652;11.968;2023-02-27T13:11:49;3.53;;;0.90;;
11006;SDS011;8186;57.652;11.968;2023-02-27T13:14:29;3.43;;;0.90;;
11006;SDS011;8186;57.652;11.968;2023-02-27T13:17:02;2.80;;;0.80;;
11006;SDS011;8186;57.652;11.968;2023-02-27T13:19:33;3.70;;;0.70;;
11006;SDS011;8186;57.652;11.968;2023-02-27T13:22:05;2.63;;;0.80;;
11006;SDS011;8186;57.652;11.968;2023-02-27T13:24:39;2.47;;;0.97;;
11006;SDS011;8186;57.652;11.968;2023-02-27T13:27:11;1.00;;;0.80;;
11006;SDS011;8186;57.652;11.968;2023-02-27T13:29:43;3.83;;;1.03;;
11006;SDS011;8186;57.652;11.968;2023-02-27T13:32:18;4.57;;;0.87;;
11006;SDS011;8186;57.652;11.968;2023-02-27T13:34:53;0.90;;;0.90;;
11006;SDS011;8186;57.652;11.968;2023-02-27T13:37:21;2.83;;;0.90;;
11006;SDS011;8186;57.652;11.968;2023-02-27T13:39:50;5.53;;;1.00;;
11006;SDS011;8186;57.652;11.968;2023-02-27T13:48:39;2.97;;;0.90;;
11006;SDS011;8186;57.652;11.968;2023-02-27T13:51:10;3.30;;;0.70;;
11006;SDS011;8186;57.652;11.968;2023-02-27T13:54:07;2.07;;;0.70;;
11006;SDS011;8186;57.652;11.968;2023-02-27T13:56:43;1.67;;;0.73;;
11006;SDS011;8186;57.652;11.968;2023-02-27T13:59:12;1.83;;;0.80;;
11006;SDS011;8186;57.652;11.968;2023-02-27T14:01:46;0.73;;;0.70;;
11006;SDS011;8186;57.652;11.968;2023-02-27T14:04:17;2.30;;;0.60;;
11006;SDS011;8186;57.652;11.968;2023-02-27T14:06:47;1.50;;;0.50;;
11006;SDS011;8186;57.652;11.968;2023-02-27T14:09:16;1.50;;;0.43;;
11006;SDS011;8186;57.652;11.968;2023-02-27T14:11:50;0.73;;;0.60;;
11006;SDS011;8186;57.652;11.968;2023-02-27T14:14:36;3.73;;;0.80;;
11006;SDS011;8186;57.652;11.968;2023-02-27T14:17:09;2.97;;;0.73;;
11006;SDS011;8186;57.652;11.968;2023-02-27T14:22:30;2.10;;;0.70;;
11006;SDS011;8186;57.652;11.968;2023-02-27T14:25:02;1.73;;;0.80;;
11006;SDS011;8186;57.652;11.968;2023-02-27T14:27:48;1.27;;;0.60;;
11006;SDS011;8186;57.652;11.968;2023-02-27T14:30:23;3.63;;;0.70;;
11006;SDS011;8186;57.652;11.968;2023-02-27T14:32:53;2.77;;;0.70;;
11006;SDS011;8186;57.652;11.968;2023-02-27T14:35:21;1.67;;;0.80;;
11006;SDS011;8186;57.652;11.968;2023-02-27T14:37:49;1.90;;;0.50;;
11006;SDS011;8186;57.652;11.968;2023-02-27T14:40:18;1.33;;;0.50;;
11006;SDS011;8186;57.652;11.968;2023-02-27T14:42:48;1.40;;;0.77;;
11006;SDS011;8186;57.652;11.968;2023-02-27T14:45:20;0.73;;;0.60;;
11006;SDS011;8186;57.652;11.968;2023-02-27T14:47:49;0.80;;;0.80;;
11006;SDS011;8186;57.652;11.968;2023-02-27T14:50:20;3.03;;;1.10;;
11006;SDS011;8186;57.652;11.968;2023-02-27T14:52:51;3.27;;;1.07;;
11006;SDS011;8186;57.652;11.968;2023-02-27T14:55:18;1.47;;;0.80;;
11006;SDS011;8186;57.652;11.968;2023-02-27T14:57:52;2.43;;;1.20;;
11006;SDS011;8186;57.652;11.968;2023-02-27T15:03:10;3.67;;;1.40;;
11006;SDS011;8186;57.652;11.968;2023-02-27T15:05:42;4.67;;;1.50;;
11006;SDS011;8186;57.652;11.968;2023-02-27T15:08:14;5.97;;;1.57;;
11006;SDS011;8186;57.652;11.968;2023-02-27T15:10:43;4.90;;;1.63;;
11006;SDS011;8186;57.652;11.968;2023-02-27T15:13:20;5.57;;;1.50;;
11006;SDS011;8186;57.652;11.968;2023-02-27T15:15:50;3.40;;;1.13;;
11006;SDS011;8186;57.652;11.968;2023-02-27T15:18:21;6.33;;;1.37;;
11006;SDS011;8186;57.652;11.968;2023-02-27T15:20:55;7.67;;;1.40;;
11006;SDS011;8186;57.652;11.968;2023-02-27T15:23:25;8.83;;;1.77;;
11006;SDS011;8186;57.652;11.968;2023-02-27T15:25:53;7.03;;;1.60;;
11006;SDS011;8186;57.652;11.968;2023-02-27T15:28:21;4.47;;;1.67;;
11006;SDS011;8186;57.652;11.968;2023-02-27T15:30:50;6.73;;;1.90;;
11006;SDS011;8186;57.652;11.968;2023-02-27T15:33:19;4.73;;;1.43;;
11006;SDS011;8186;57.652;11.968;2023-02-27T15:35:49;7.37;;;1.70;;